sensor_id;sensor_type;location;lat;lon;timestamp;pressure;altitude;pressure_sealevel;temperature;humidity
80682;BME280;70045;40.200;44.582;2023-12-28T00:02:19;86606.97;;;4.79;56.01
80682;BME280;70045;40.200;44.582;2023-12-28T00:04:55;86600.34;;;4.70;57.01
80682;BME280;70045;40.200;44.582;2023-12-28T00:07:20;86598.13;;;4.65;56.53
80682;BME280;70045;40.200;44.582;2023-12-28T00:09:46;86600.25;;;4.60;56.23
80682;BME280;70045;40.200;44.582;2023-12-28T00:12:11;86615.69;;;4.63;56.40
80682;BME280;70045;40.200;44.582;2023-12-28T00:14:37;86601.75;;;4.64;55.98
80682;BME280;70045;40.200;44.582;2023-12-28T00:17:13;86595.53;;;4.65;56.19
80682;BME280;70045;40.200;44.582;2023-12-28T00:19:39;86595.16;;;4.63;56.26
80682;BME280;70045;40.200;44.582;2023-12-28T00:22:04;86583.06;;;4.64;56.16
80682;BME280;70045;40.200;44.582;2023-12-28T00:24:30;86576.84;;;4.68;56.17
80682;BME280;70045;40.200;44.582;2023-12-28T00:26:55;86573.88;;;4.66;56.04
80682;BME280;70045;40.200;44.582;2023-12-28T00:29:31;86576.09;;;4.64;56.28
80682;BME280;70045;40.200;44.582;2023-12-28T00:31:56;86578.66;;;4.64;56.89
80682;BME280;70045;40.200;44.582;2023-12-28T00:34:22;86572.00;;;4.56;56.67
80682;BME280;70045;40.200;44.582;2023-12-28T00:36:47;86579.00;;;4.59;57.54
80682;BME280;70045;40.200;44.582;2023-12-28T00:39:12;86568.75;;;4.63;56.06
80682;BME280;70045;40.200;44.582;2023-12-28T00:41:49;86572.09;;;4.70;56.00
80682;BME280;70045;40.200;44.582;2023-12-28T00:44:14;86580.53;;;4.75;56.71
80682;BME280;70045;40.200;44.582;2023-12-28T00:46:40;86574.69;;;4.81;55.72
80682;BME280;70045;40.200;44.582;2023-12-28T00:49:05;86562.59;;;4.82;55.61
80682;BME280;70045;40.200;44.582;2023-12-28T00:51:31;86557.81;;;4.80;55.41
80682;BME280;70045;40.200;44.582;2023-12-28T00:54:07;86562.22;;;4.76;55.30
80682;BME280;70045;40.200;44.582;2023-12-28T00:56:32;86562.56;;;4.71;55.91
80682;BME280;70045;40.200;44.582;2023-12-28T00:58:58;86561.41;;;4.65;55.95
80682;BME280;70045;40.200;44.582;2023-12-28T01:01:23;86556.28;;;4.65;55.59
80682;BME280;70045;40.200;44.582;2023-12-28T01:03:49;86548.94;;;4.63;56.01
80682;BME280;70045;40.200;44.582;2023-12-28T01:06:25;86550.41;;;4.64;55.92
80682;BME280;70045;40.200;44.582;2023-12-28T01:08:50;86539.00;;;4.58;55.95
80682;BME280;70045;40.200;44.582;2023-12-28T01:11:16;86544.50;;;4.57;55.94
80682;BME280;70045;40.200;44.582;2023-12-28T01:13:41;86538.22;;;4.47;55.94
80682;BME280;70045;40.200;44.582;2023-12-28T01:16:06;86546.63;;;4.44;56.05
80682;BME280;70045;40.200;44.582;2023-12-28T01:18:43;86552.50;;;4.44;56.14
80682;BME280;70045;40.200;44.582;2023-12-28T01:21:08;86551.81;;;4.51;55.64
80682;BME280;70045;40.200;44.582;2023-12-28T01:23:34;86545.63;;;4.59;55.30
80682;BME280;70045;40.200;44.582;2023-12-28T01:25:59;86540.13;;;4.64;54.72
80682;BME280;70045;40.200;44.582;2023-12-28T01:28:25;86544.56;;;4.67;54.67
80682;BME280;70045;40.200;44.582;2023-12-28T01:31:01;86541.22;;;4.67;54.82
80682;BME280;70045;40.200;44.582;2023-12-28T01:33:26;86542.72;;;4.64;54.47
80682;BME280;70045;40.200;44.582;2023-12-28T01:35:52;86548.91;;;4.56;55.05
80682;BME280;70045;40.200;44.582;2023-12-28T01:38:17;86551.09;;;4.54;55.21
80682;BME280;70045;40.200;44.582;2023-12-28T01:40:45;86548.94;;;4.63;54.41
80682;BME280;70045;40.200;44.582;2023-12-28T01:43:21;86543.09;;;4.70;55.01
80682;BME280;70045;40.200;44.582;2023-12-28T01:45:46;86545.28;;;4.68;54.16
80682;BME280;70045;40.200;44.582;2023-12-28T01:48:12;86543.06;;;4.63;54.61
80682;BME280;70045;40.200;44.582;2023-12-28T01:50:39;86539.38;;;4.57;54.25
80682;BME280;70045;40.200;44.582;2023-12-28T01:53:05;86534.13;;;4.39;55.03
80682;BME280;70045;40.200;44.582;2023-12-28T01:55:42;86535.19;;;4.30;55.09
80682;BME280;70045;40.200;44.582;2023-12-28T01:58:07;86550.22;;;4.32;55.15
80682;BME280;70045;40.200;44.582;2023-12-28T02:00:33;86537.00;;;4.26;54.91
80682;BME280;70045;40.200;44.582;2023-12-28T02:02:59;86539.91;;;4.21;55.11
80682;BME280;70045;40.200;44.582;2023-12-28T02:05:25;86542.84;;;4.20;55.30
80682;BME280;70045;40.200;44.582;2023-12-28T02:08:01;86531.09;;;4.15;55.41
80682;BME280;70045;40.200;44.582;2023-12-28T02:10:27;86547.22;;;4.15;55.75
80682;BME280;70045;40.200;44.582;2023-12-28T02:12:52;86547.94;;;4.16;55.97
80682;BME280;70045;40.200;44.582;2023-12-28T02:15:18;86555.28;;;4.14;56.13
80682;BME280;70045;40.200;44.582;2023-12-28T02:17:50;86545.34;;;4.09;56.22
80682;BME280;70045;40.200;44.582;2023-12-28T02:20:29;86551.19;;;4.09;56.84
80682;BME280;70045;40.200;44.582;2023-12-28T02:22:56;86550.13;;;4.10;55.59
80682;BME280;70045;40.200;44.582;2023-12-28T02:25:22;86541.28;;;4.08;55.88
80682;BME280;70045;40.200;44.582;2023-12-28T02:27:48;86540.22;;;4.09;55.67
80682;BME280;70045;40.200;44.582;2023-12-28T02:30:16;86543.47;;;4.06;55.94
80682;BME280;70045;40.200;44.582;2023-12-28T02:33:18;86542.72;;;4.02;57.19
80682;BME280;70045;40.200;44.582;2023-12-28T02:35:52;86548.97;;;4.08;56.75
80682;BME280;70045;40.200;44.582;2023-12-28T02:38:21;86544.97;;;4.10;56.62
80682;BME280;70045;40.200;44.582;2023-12-28T02:40:49;86545.75;;;4.18;57.44
80682;BME280;70045;40.200;44.582;2023-12-28T02:43:25;86553.88;;;4.27;57.42
80682;BME280;70045;40.200;44.582;2023-12-28T02:45:51;86548.38;;;4.25;57.67
80682;BME280;70045;40.200;44.582;2023-12-28T02:48:16;86552.44;;;4.30;58.08
80682;BME280;70045;40.200;44.582;2023-12-28T02:50:41;86562.75;;;4.44;57.46
80682;BME280;70045;40.200;44.582;2023-12-28T02:53:07;86557.69;;;4.51;57.28
80682;BME280;70045;40.200;44.582;2023-12-28T02:55:43;86556.22;;;4.54;58.19
80682;BME280;70045;40.200;44.582;2023-12-28T02:58:08;86556.63;;;4.60;57.30
80682;BME280;70045;40.200;44.582;2023-12-28T03:00:34;86554.06;;;4.63;58.28
80682;BME280;70045;40.200;44.582;2023-12-28T03:02:59;86554.84;;;4.75;57.82
80682;BME280;70045;40.200;44.582;2023-12-28T03:05:24;86552.31;;;4.82;57.26
80682;BME280;70045;40.200;44.582;2023-12-28T03:08:01;86557.81;;;4.84;58.23
80682;BME280;70045;40.200;44.582;2023-12-28T03:10:26;86566.66;;;4.86;57.05
80682;BME280;70045;40.200;44.582;2023-12-28T03:12:52;86570.69;;;4.91;56.92
80682;BME280;70045;40.200;44.582;2023-12-28T03:15:17;86572.53;;;4.94;58.29
80682;BME280;70045;40.200;44.582;2023-12-28T03:17:42;86570.69;;;4.91;57.22
80682;BME280;70045;40.200;44.582;2023-12-28T03:20:20;86583.94;;;4.93;57.24
80682;BME280;70045;40.200;44.582;2023-12-28T03:22:45;86583.16;;;4.89;57.59
80682;BME280;70045;40.200;44.582;2023-12-28T03:25:10;86580.59;;;4.89;57.38
80682;BME280;70045;40.200;44.582;2023-12-28T03:27:36;86585.72;;;4.89;57.27
80682;BME280;70045;40.200;44.582;2023-12-28T03:30:01;86587.22;;;4.86;57.39
80682;BME280;70045;40.200;44.582;2023-12-28T03:32:37;86578.00;;;4.85;57.18
80682;BME280;70045;40.200;44.582;2023-12-28T03:35:03;86573.94;;;4.81;57.59
80682;BME280;70045;40.200;44.582;2023-12-28T03:37:29;86571.00;;;4.79;57.00
80682;BME280;70045;40.200;44.582;2023-12-28T03:39:54;86575.41;;;4.75;56.80
80682;BME280;70045;40.200;44.582;2023-12-28T03:42:19;86574.66;;;4.70;57.04
80682;BME280;70045;40.200;44.582;2023-12-28T03:44:56;86580.88;;;4.69;56.52
80682;BME280;70045;40.200;44.582;2023-12-28T03:47:21;86570.25;;;4.67;56.61
80682;BME280;70045;40.200;44.582;2023-12-28T03:49:47;86586.38;;;4.71;55.44
80682;BME280;70045;40.200;44.582;2023-12-28T03:52:12;86575.75;;;4.73;55.52
80682;BME280;70045;40.200;44.582;2023-12-28T03:54:39;86587.16;;;4.76;55.58
80682;BME280;70045;40.200;44.582;2023-12-28T03:57:15;86585.69;;;4.78;55.48
80682;BME280;70045;40.200;44.582;2023-12-28T03:59:40;86583.84;;;4.79;55.42
80682;BME280;70045;40.200;44.582;2023-12-28T04:02:06;86593.03;;;4.80;55.27
80682;BME280;70045;40.200;44.582;2023-12-28T04:04:31;86602.19;;;4.77;55.62
80682;BME280;70045;40.200;44.582;2023-12-28T04:06:56;86599.63;;;4.77;55.86
80682;BME280;70045;40.200;44.582;2023-12-28T04:09:33;86593.75;;;4.77;55.55
80682;BME280;70045;40.200;44.582;2023-12-28T04:11:59;86591.16;;;4.73;56.01
80682;BME280;70045;40.200;44.582;2023-12-28T04:14:24;86594.09;;;4.71;55.61
80682;BME280;70045;40.200;44.582;2023-12-28T04:16:50;86588.59;;;4.73;55.66
80682;BME280;70045;40.200;44.582;2023-12-28T04:19:15;86578.34;;;4.77;55.93
80682;BME280;70045;40.200;44.582;2023-12-28T04:21:51;86573.56;;;4.79;55.45
80682;BME280;70045;40.200;44.582;2023-12-28T04:24:16;86570.28;;;4.75;55.74
80682;BME280;70045;40.200;44.582;2023-12-28T04:26:41;86565.13;;;4.75;56.16
80682;BME280;70045;40.200;44.582;2023-12-28T04:29:07;86545.97;;;4.54;55.71
80682;BME280;70045;40.200;44.582;2023-12-28T04:31:32;86573.22;;;4.77;55.57
80682;BME280;70045;40.200;44.582;2023-12-28T04:34:09;86574.69;;;4.81;55.51
80682;BME280;70045;40.200;44.582;2023-12-28T04:36:42;86579.13;;;4.84;55.68
80682;BME280;70045;40.200;44.582;2023-12-28T04:39:08;86572.53;;;4.87;55.87
80682;BME280;70045;40.200;44.582;2023-12-28T04:41:33;86579.16;;;4.88;56.17
80682;BME280;70045;40.200;44.582;2023-12-28T04:43:59;86576.94;;;4.86;55.94
80682;BME280;70045;40.200;44.582;2023-12-28T04:46:38;86583.16;;;4.89;56.54
80682;BME280;70045;40.200;44.582;2023-12-28T04:49:03;86586.50;;;4.93;55.48
80682;BME280;70045;40.200;44.582;2023-12-28T04:51:29;86596.03;;;4.96;55.63
80682;BME280;70045;40.200;44.582;2023-12-28T04:53:54;86587.97;;;4.94;56.00
80682;BME280;70045;40.200;44.582;2023-12-28T04:56:20;86600.47;;;4.99;55.23
80682;BME280;70045;40.200;44.582;2023-12-28T04:58:56;86593.13;;;5.01;55.61
80682;BME280;70045;40.200;44.582;2023-12-28T05:01:21;86597.91;;;5.06;55.03
80682;BME280;70045;40.200;44.582;2023-12-28T05:03:47;86593.91;;;5.13;55.16
80682;BME280;70045;40.200;44.582;2023-12-28T05:06:12;86604.59;;;5.22;54.52
80682;BME280;70045;40.200;44.582;2023-12-28T05:08:37;86611.94;;;5.27;55.04
80682;BME280;70045;40.200;44.582;2023-12-28T05:11:14;86618.59;;;5.35;54.52
80682;BME280;70045;40.200;44.582;2023-12-28T05:13:39;86607.19;;;5.36;54.70
80682;BME280;70045;40.200;44.582;2023-12-28T05:16:05;86600.63;;;5.42;54.34
80682;BME280;70045;40.200;44.582;2023-12-28T05:18:31;86608.72;;;5.52;54.18
80682;BME280;70045;40.200;44.582;2023-12-28T05:20:56;86613.88;;;5.59;54.33
80682;BME280;70045;40.200;44.582;2023-12-28T05:23:33;86624.56;;;5.68;54.39
80682;BME280;70045;40.200;44.582;2023-12-28T05:25:58;86634.88;;;5.75;54.41
80682;BME280;70045;40.200;44.582;2023-12-28T05:28:24;86631.94;;;5.80;54.26
80682;BME280;70045;40.200;44.582;2023-12-28T05:30:49;86635.59;;;5.87;54.09
80682;BME280;70045;40.200;44.582;2023-12-28T05:33:14;86637.88;;;6.06;53.76
80682;BME280;70045;40.200;44.582;2023-12-28T05:35:51;86649.31;;;6.34;53.25
80682;BME280;70045;40.200;44.582;2023-12-28T05:38:16;86655.94;;;6.56;52.93
80682;BME280;70045;40.200;44.582;2023-12-28T05:40:42;86650.03;;;6.74;52.39
80682;BME280;70045;40.200;44.582;2023-12-28T05:43:07;86640.44;;;6.74;51.71
80682;BME280;70045;40.200;44.582;2023-12-28T05:45:33;86605.84;;;6.65;52.09
80682;BME280;70045;40.200;44.582;2023-12-28T05:48:09;86639.69;;;6.92;51.48
80682;BME280;70045;40.200;44.582;2023-12-28T05:50:34;86645.56;;;7.00;50.53
80682;BME280;70045;40.200;44.582;2023-12-28T05:53:00;86649.97;;;6.99;51.54
80682;BME280;70045;40.200;44.582;2023-12-28T05:55:25;86650.72;;;7.00;50.85
80682;BME280;70045;40.200;44.582;2023-12-28T05:57:51;86657.69;;;7.17;51.07
80682;BME280;70045;40.200;44.582;2023-12-28T06:00:27;86653.56;;;7.38;50.89
80682;BME280;70045;40.200;44.582;2023-12-28T06:02:52;86648.41;;;7.45;50.49
80682;BME280;70045;40.200;44.582;2023-12-28T06:05:18;86648.72;;;7.54;49.40
80682;BME280;70045;40.200;44.582;2023-12-28T06:07:43;86646.09;;;7.61;50.09
80682;BME280;70045;40.200;44.582;2023-12-28T06:10:09;86633.59;;;7.56;49.50
80682;BME280;70045;40.200;44.582;2023-12-28T06:12:45;86639.50;;;7.53;49.82
80682;BME280;70045;40.200;44.582;2023-12-28T06:15:10;86643.53;;;7.61;49.46
80682;BME280;70045;40.200;44.582;2023-12-28T06:17:35;86648.59;;;7.79;49.16
80682;BME280;70045;40.200;44.582;2023-12-28T06:20:01;86647.06;;;7.92;49.02
80682;BME280;70045;40.200;44.582;2023-12-28T06:22:27;86645.97;;;7.94;48.02
80682;BME280;70045;40.200;44.582;2023-12-28T06:25:03;86640.00;;;8.04;48.16
80682;BME280;70045;40.200;44.582;2023-12-28T06:27:29;86644.38;;;8.10;48.28
80682;BME280;70045;40.200;44.582;2023-12-28T06:29:54;86637.00;;;8.13;48.22
80682;BME280;70045;40.200;44.582;2023-12-28T06:32:20;86644.97;;;8.33;48.20
80682;BME280;70045;40.200;44.582;2023-12-28T06:34:46;86641.25;;;8.44;47.23
80682;BME280;70045;40.200;44.582;2023-12-28T06:37:22;86653.66;;;8.64;47.35
80682;BME280;70045;40.200;44.582;2023-12-28T06:39:47;86654.34;;;8.72;46.54
80682;BME280;70045;40.200;44.582;2023-12-28T06:42:13;86654.25;;;8.82;45.94
80682;BME280;70045;40.200;44.582;2023-12-28T06:44:39;86659.00;;;8.88;46.74
80682;BME280;70045;40.200;44.582;2023-12-28T06:47:05;86664.63;;;8.79;45.95
80682;BME280;70045;40.200;44.582;2023-12-28T06:49:41;86667.69;;;8.63;45.74
80682;BME280;70045;40.200;44.582;2023-12-28T06:52:06;86663.75;;;8.47;46.36
80682;BME280;70045;40.200;44.582;2023-12-28T06:54:32;86672.97;;;8.41;46.51
80682;BME280;70045;40.200;44.582;2023-12-28T06:56:57;86672.25;;;8.44;46.42
80682;BME280;70045;40.200;44.582;2023-12-28T06:59:23;86656.41;;;8.35;45.86
80682;BME280;70045;40.200;44.582;2023-12-28T07:01:59;86668.22;;;8.36;45.88
80682;BME280;70045;40.200;44.582;2023-12-28T07:04:24;86669.06;;;8.19;45.68
80682;BME280;70045;40.200;44.582;2023-12-28T07:06:49;86677.56;;;8.16;46.47
80682;BME280;70045;40.200;44.582;2023-12-28T07:09:15;86672.38;;;8.23;46.62
80682;BME280;70045;40.200;44.582;2023-12-28T07:11:40;86681.56;;;8.24;46.60
80682;BME280;70045;40.200;44.582;2023-12-28T07:14:17;86644.34;;;8.14;46.69
80682;BME280;70045;40.200;44.582;2023-12-28T07:16:42;86668.59;;;8.31;46.51
80682;BME280;70045;40.200;44.582;2023-12-28T07:19:07;86667.13;;;8.34;46.94
80682;BME280;70045;40.200;44.582;2023-12-28T07:21:33;86657.53;;;8.34;46.58
80682;BME280;70045;40.200;44.582;2023-12-28T07:23:58;86664.50;;;8.41;46.15
80682;BME280;70045;40.200;44.582;2023-12-28T07:26:35;86670.78;;;8.43;46.04
80682;BME280;70045;40.200;44.582;2023-12-28T07:29:00;86668.56;;;8.45;45.86
80682;BME280;70045;40.200;44.582;2023-12-28T07:31:27;86676.19;;;8.63;45.68
80682;BME280;70045;40.200;44.582;2023-12-28T07:33:53;86666.44;;;8.78;45.25
80682;BME280;70045;40.200;44.582;2023-12-28T07:36:18;86656.91;;;8.75;44.73
80682;BME280;70045;40.200;44.582;2023-12-28T07:38:55;86654.31;;;8.75;43.99
80682;BME280;70045;40.200;44.582;2023-12-28T07:41:20;86653.50;;;8.85;43.47
80682;BME280;70045;40.200;44.582;2023-12-28T07:43:45;86654.25;;;8.82;44.56
80682;BME280;70045;40.200;44.582;2023-12-28T07:46:11;86643.19;;;8.78;43.84
80682;BME280;70045;40.200;44.582;2023-12-28T07:48:36;86646.19;;;8.77;44.10
80682;BME280;70045;40.200;44.582;2023-12-28T07:51:13;86649.84;;;8.79;43.98
80682;BME280;70045;40.200;44.582;2023-12-28T07:53:38;86639.75;;;8.96;44.16
80682;BME280;70045;40.200;44.582;2023-12-28T07:56:04;86647.28;;;9.17;43.22
80682;BME280;70045;40.200;44.582;2023-12-28T07:58:30;86650.50;;;9.29;42.51
80682;BME280;70045;40.200;44.582;2023-12-28T08:00:55;86639.97;;;9.47;42.89
80682;BME280;70045;40.200;44.582;2023-12-28T08:03:32;86642.91;;;10.41;40.47
80682;BME280;70045;40.200;44.582;2023-12-28T08:05:57;86627.94;;;11.83;39.57
80682;BME280;70045;40.200;44.582;2023-12-28T08:08:22;86628.91;;;12.99;37.87
80682;BME280;70045;40.200;44.582;2023-12-28T08:10:48;86628.03;;;13.81;34.65
80682;BME280;70045;40.200;44.582;2023-12-28T08:13:13;86627.09;;;14.42;34.42
80682;BME280;70045;40.200;44.582;2023-12-28T08:15:50;86628.66;;;15.17;32.99
80682;BME280;70045;40.200;44.582;2023-12-28T08:18:15;86634.59;;;15.65;33.44
80682;BME280;70045;40.200;44.582;2023-12-28T08:20:40;86639.44;;;16.11;32.17
80682;BME280;70045;40.200;44.582;2023-12-28T08:23:06;86634.91;;;16.55;29.00
80682;BME280;70045;40.200;44.582;2023-12-28T08:25:31;86630.47;;;16.97;30.87
80682;BME280;70045;40.200;44.582;2023-12-28T08:28:08;86629.94;;;17.20;29.88
80682;BME280;70045;40.200;44.582;2023-12-28T08:30:33;86618.63;;;17.42;29.68
80682;BME280;70045;40.200;44.582;2023-12-28T08:32:59;86614.44;;;17.81;29.81
80682;BME280;70045;40.200;44.582;2023-12-28T08:35:24;86609.22;;;18.09;29.13
80682;BME280;70045;40.200;44.582;2023-12-28T08:37:50;86614.75;;;18.11;27.88
80682;BME280;70045;40.200;44.582;2023-12-28T08:40:26;86604.47;;;18.59;26.82
80682;BME280;70045;40.200;44.582;2023-12-28T08:42:51;86606.72;;;18.76;28.07
80682;BME280;70045;40.200;44.582;2023-12-28T08:45:16;86611.66;;;18.92;26.95
80682;BME280;70045;40.200;44.582;2023-12-28T08:47:42;86608.91;;;18.87;26.85
80682;BME280;70045;40.200;44.582;2023-12-28T08:50:07;86596.47;;;18.96;27.05
80682;BME280;70045;40.200;44.582;2023-12-28T08:52:44;86607.41;;;19.52;26.94
80682;BME280;70045;40.200;44.582;2023-12-28T08:55:09;86612.34;;;19.60;26.46
80682;BME280;70045;40.200;44.582;2023-12-28T08:57:34;86608.22;;;19.92;26.35
80682;BME280;70045;40.200;44.582;2023-12-28T09:00:00;86600.03;;;19.90;25.97
80682;BME280;70045;40.200;44.582;2023-12-28T09:02:29;86583.41;;;19.84;24.80
80682;BME280;70045;40.200;44.582;2023-12-28T09:05:06;86582.16;;;19.79;24.82
80682;BME280;70045;40.200;44.582;2023-12-28T09:07:32;86558.97;;;20.07;25.22
80682;BME280;70045;40.200;44.582;2023-12-28T09:09:57;86561.25;;;20.44;25.03
80682;BME280;70045;40.200;44.582;2023-12-28T09:12:22;86558.78;;;20.56;24.14
80682;BME280;70045;40.200;44.582;2023-12-28T09:14:48;86557.50;;;20.96;23.83
80682;BME280;70045;40.200;44.582;2023-12-28T09:17:24;86552.16;;;21.25;22.71
80682;BME280;70045;40.200;44.582;2023-12-28T09:19:49;86562.50;;;21.29;23.60
80682;BME280;70045;40.200;44.582;2023-12-28T09:22:14;86557.13;;;21.03;22.26
80682;BME280;70045;40.200;44.582;2023-12-28T09:24:40;86538.00;;;21.64;23.22
80682;BME280;70045;40.200;44.582;2023-12-28T09:27:05;86545.03;;;22.14;23.49
80682;BME280;70045;40.200;44.582;2023-12-28T09:29:42;86539.63;;;22.81;22.41
80682;BME280;70045;40.200;44.582;2023-12-28T09:32:07;86535.31;;;22.84;21.63
80682;BME280;70045;40.200;44.582;2023-12-28T09:34:33;86543.72;;;22.88;21.61
80682;BME280;70045;40.200;44.582;2023-12-28T09:36:58;86543.91;;;23.10;22.39
80682;BME280;70045;40.200;44.582;2023-12-28T09:39:24;86551.84;;;22.79;21.54
80682;BME280;70045;40.200;44.582;2023-12-28T09:42:04;86554.22;;;22.77;21.89
80682;BME280;70045;40.200;44.582;2023-12-28T09:44:30;86552.91;;;22.92;20.94
80682;BME280;70045;40.200;44.582;2023-12-28T09:46:57;86553.50;;;22.76;20.80
80682;BME280;70045;40.200;44.582;2023-12-28T09:49:22;86566.78;;;20.91;22.86
80682;BME280;70045;40.200;44.582;2023-12-28T09:51:48;86563.53;;;18.77;25.01
80682;BME280;70045;40.200;44.582;2023-12-28T09:54:24;86571.59;;;17.38;26.83
80682;BME280;70045;40.200;44.582;2023-12-28T09:56:50;86547.41;;;16.25;27.92
80682;BME280;70045;40.200;44.582;2023-12-28T09:59:16;86565.16;;;15.77;29.14
80682;BME280;70045;40.200;44.582;2023-12-28T10:01:43;86557.94;;;15.46;29.87
80682;BME280;70045;40.200;44.582;2023-12-28T10:04:11;86552.75;;;15.11;30.52
80682;BME280;70045;40.200;44.582;2023-12-28T10:06:47;86563.34;;;14.82;31.40
80682;BME280;70045;40.200;44.582;2023-12-28T10:09:12;86547.78;;;14.53;30.85
80682;BME280;70045;40.200;44.582;2023-12-28T10:11:38;86549.88;;;14.32;31.56
80682;BME280;70045;40.200;44.582;2023-12-28T10:14:04;86534.34;;;14.03;32.05
80682;BME280;70045;40.200;44.582;2023-12-28T10:16:29;86530.03;;;13.58;32.00
80682;BME280;70045;40.200;44.582;2023-12-28T10:19:04;86541.03;;;13.19;32.52
80682;BME280;70045;40.200;44.582;2023-12-28T10:21:30;86540.94;;;13.23;32.79
80682;BME280;70045;40.200;44.582;2023-12-28T10:23:55;86541.13;;;13.16;32.26
80682;BME280;70045;40.200;44.582;2023-12-28T10:26:21;86529.41;;;13.08;32.67
80682;BME280;70045;40.200;44.582;2023-12-28T10:28:46;86543.88;;;13.09;32.53
80682;BME280;70045;40.200;44.582;2023-12-28T10:31:22;86547.34;;;13.18;32.53
80682;BME280;70045;40.200;44.582;2023-12-28T10:33:48;86553.19;;;13.23;32.86
80682;BME280;70045;40.200;44.582;2023-12-28T10:36:15;86560.94;;;13.26;32.90
80682;BME280;70045;40.200;44.582;2023-12-28T10:38:42;86551.19;;;13.14;32.81
80682;BME280;70045;40.200;44.582;2023-12-28T10:41:10;86545.47;;;13.19;32.50
80682;BME280;70045;40.200;44.582;2023-12-28T10:43:58;86549.66;;;13.16;32.80
80682;BME280;70045;40.200;44.582;2023-12-28T10:46:27;86530.03;;;13.12;33.15
80682;BME280;70045;40.200;44.582;2023-12-28T10:49:05;86547.75;;;13.17;32.77
80682;BME280;70045;40.200;44.582;2023-12-28T10:51:32;86552.34;;;13.13;32.27
80682;BME280;70045;40.200;44.582;2023-12-28T10:56:46;86543.59;;;12.74;32.74
80682;BME280;70045;40.200;44.582;2023-12-28T10:59:35;86551.84;;;12.56;32.48
80682;BME280;70045;40.200;44.582;2023-12-28T11:02:05;86561.75;;;12.28;33.39
80682;BME280;70045;40.200;44.582;2023-12-28T11:04:47;86560.63;;;12.29;33.67
80682;BME280;70045;40.200;44.582;2023-12-28T11:07:15;86549.78;;;12.14;33.63
80682;BME280;70045;40.200;44.582;2023-12-28T11:09:42;86558.06;;;12.09;33.58
80682;BME280;70045;40.200;44.582;2023-12-28T11:12:08;86561.31;;;12.13;34.16
80682;BME280;70045;40.200;44.582;2023-12-28T11:14:34;86561.47;;;12.06;33.77
80682;BME280;70045;40.200;44.582;2023-12-28T11:17:10;86564.09;;;11.86;34.25
80682;BME280;70045;40.200;44.582;2023-12-28T11:19:35;86571.56;;;11.64;35.34
80682;BME280;70045;40.200;44.582;2023-12-28T11:22:03;86571.09;;;11.49;34.55
80682;BME280;70045;40.200;44.582;2023-12-28T11:24:29;86585.75;;;11.39;34.50
80682;BME280;70045;40.200;44.582;2023-12-28T11:26:55;86588.13;;;11.30;34.64
80682;BME280;70045;40.200;44.582;2023-12-28T11:29:32;86585.38;;;10.97;34.84
80682;BME280;70045;40.200;44.582;2023-12-28T11:31:58;86569.31;;;10.82;34.07
80682;BME280;70045;40.200;44.582;2023-12-28T11:34:31;86594.63;;;9.96;35.80
80682;BME280;70045;40.200;44.582;2023-12-28T11:37:00;86576.34;;;9.80;34.75
80682;BME280;70045;40.200;44.582;2023-12-28T11:39:42;86579.44;;;9.37;35.62
80682;BME280;70045;40.200;44.582;2023-12-28T11:42:09;86593.50;;;9.67;35.62
80682;BME280;70045;40.200;44.582;2023-12-28T11:44:41;86601.06;;;10.12;34.89
80682;BME280;70045;40.200;44.582;2023-12-28T11:47:21;86589.34;;;10.04;33.11
80682;BME280;70045;40.200;44.582;2023-12-28T11:50:06;86598.84;;;10.14;33.23
80682;BME280;70045;40.200;44.582;2023-12-28T11:52:32;86603.00;;;10.35;34.00
80682;BME280;70045;40.200;44.582;2023-12-28T11:54:59;86607.97;;;10.49;33.42
80682;BME280;70045;40.200;44.582;2023-12-28T11:57:25;86599.59;;;10.65;33.68
80682;BME280;70045;40.200;44.582;2023-12-28T12:00:09;86610.69;;;10.66;33.27
80682;BME280;70045;40.200;44.582;2023-12-28T12:02:35;86605.50;;;10.66;33.45
80682;BME280;70045;40.200;44.582;2023-12-28T12:05:00;86597.78;;;10.39;33.77
80682;BME280;70045;40.200;44.582;2023-12-28T12:07:26;86578.69;;;10.25;33.57
80682;BME280;70045;40.200;44.582;2023-12-28T12:10:00;86609.78;;;10.25;33.50
80682;BME280;70045;40.200;44.582;2023-12-28T12:12:35;86594.97;;;9.98;33.83
80682;BME280;70045;40.200;44.582;2023-12-28T12:15:01;86582.63;;;9.52;34.42
80682;BME280;70045;40.200;44.582;2023-12-28T12:17:55;86599.41;;;9.71;34.76
80682;BME280;70045;40.200;44.582;2023-12-28T12:20:21;86567.81;;;9.52;35.05
80682;BME280;70045;40.200;44.582;2023-12-28T12:22:58;86546.88;;;8.71;35.59
80682;BME280;70045;40.200;44.582;2023-12-28T12:25:24;86550.28;;;9.02;36.44
80682;BME280;70045;40.200;44.582;2023-12-28T12:27:49;86521.88;;;8.98;35.76
80682;BME280;70045;40.200;44.582;2023-12-28T12:30:15;86528.19;;;8.94;35.54
80682;BME280;70045;40.200;44.582;2023-12-28T12:32:40;86499.06;;;8.90;34.22
80682;BME280;70045;40.200;44.582;2023-12-28T12:35:17;86523.84;;;8.42;32.77
80682;BME280;70045;40.200;44.582;2023-12-28T12:37:42;86492.84;;;8.04;32.70
80682;BME280;70045;40.200;44.582;2023-12-28T12:40:08;86569.16;;;8.05;33.54
80682;BME280;70045;40.200;44.582;2023-12-28T12:42:34;86561.19;;;7.88;33.34
80682;BME280;70045;40.200;44.582;2023-12-28T12:44:59;86591.09;;;7.79;32.51
80682;BME280;70045;40.200;44.582;2023-12-28T12:47:35;86593.00;;;7.67;32.06
80682;BME280;70045;40.200;44.582;2023-12-28T12:50:01;86574.91;;;7.75;32.83
80682;BME280;70045;40.200;44.582;2023-12-28T12:52:26;86590.78;;;7.69;31.95
80682;BME280;70045;40.200;44.582;2023-12-28T12:54:56;86593.75;;;7.64;32.71
80682;BME280;70045;40.200;44.582;2023-12-28T12:57:21;86627.66;;;7.66;33.01
80682;BME280;70045;40.200;44.582;2023-12-28T12:59:58;86591.94;;;7.58;33.04
80682;BME280;70045;40.200;44.582;2023-12-28T13:02:24;86625.56;;;7.40;33.37
80682;BME280;70045;40.200;44.582;2023-12-28T13:04:52;86620.03;;;7.38;32.84
80682;BME280;70045;40.200;44.582;2023-12-28T13:07:18;86635.13;;;7.39;33.12